sensor_id;sensor_type;location;lat;lon;timestamp;temperature;humidity
19972;DHT22;10147;16.402;102.848;2024-01-15T00:02:14;22.10;99.90
19972;DHT22;10147;16.402;102.848;2024-01-15T00:04:43;22.10;99.90
19972;DHT22;10147;16.402;102.848;2024-01-15T00:07:14;22.10;99.90
19972;DHT22;10147;16.402;102.848;2024-01-15T00:09:44;22.10;99.90
19972;DHT22;10147;16.402;102.848;2024-01-15T00:12:14;22.10;99.90
19972;DHT22;10147;16.402;102.848;2024-01-15T00:14:44;22.20;99.90
19972;DHT22;10147;16.402;102.848;2024-01-15T00:17:14;22.20;99.90
19972;DHT22;10147;16.402;102.848;2024-01-15T00:19:44;22.30;99.90
19972;DHT22;10147;16.402;102.848;2024-01-15T00:22:15;22.30;99.90
19972;DHT22;10147;16.402;102.848;2024-01-15T00:24:45;22.40;99.90
19972;DHT22;10147;16.402;102.848;2024-01-15T00:27:15;22.50;99.90
19972;DHT22;10147;16.402;102.848;2024-01-15T00:29:45;22.60;99.90
19972;DHT22;10147;16.402;102.848;2024-01-15T00:32:16;22.80;99.90
19972;DHT22;10147;16.402;102.848;2024-01-15T00:34:46;23.00;99.90
19972;DHT22;10147;16.402;102.848;2024-01-15T00:37:16;22.90;99.90
19972;DHT22;10147;16.402;102.848;2024-01-15T00:39:46;23.00;99.90
19972;DHT22;10147;16.402;102.848;2024-01-15T00:42:17;23.00;99.90
19972;DHT22;10147;16.402;102.848;2024-01-15T00:44:47;23.10;99.90
19972;DHT22;10147;16.402;102.848;2024-01-15T00:47:19;23.00;99.90
19972;DHT22;10147;16.402;102.848;2024-01-15T00:49:49;23.20;99.90
19972;DHT22;10147;16.402;102.848;2024-01-15T00:52:19;23.00;99.90
19972;DHT22;10147;16.402;102.848;2024-01-15T00:54:49;23.00;99.90
19972;DHT22;10147;16.402;102.848;2024-01-15T00:57:20;23.00;99.90
19972;DHT22;10147;16.402;102.848;2024-01-15T00:59:49;23.30;99.90
19972;DHT22;10147;16.402;102.848;2024-01-15T01:02:20;23.20;99.90
19972;DHT22;10147;16.402;102.848;2024-01-15T01:04:50;23.40;99.90
19972;DHT22;10147;16.402;102.848;2024-01-15T01:07:20;23.40;99.90
19972;DHT22;10147;16.402;102.848;2024-01-15T01:09:51;23.60;99.90
19972;DHT22;10147;16.402;102.848;2024-01-15T01:12:21;23.90;99.90
19972;DHT22;10147;16.402;102.848;2024-01-15T01:14:51;24.00;99.90
19972;DHT22;10147;16.402;102.848;2024-01-15T01:17:21;24.10;99.90
19972;DHT22;10147;16.402;102.848;2024-01-15T01:19:52;24.20;99.90
19972;DHT22;10147;16.402;102.848;2024-01-15T01:22:22;24.30;99.90
19972;DHT22;10147;16.402;102.848;2024-01-15T01:24:53;24.10;99.90
19972;DHT22;10147;16.402;102.848;2024-01-15T01:27:23;24.10;99.90
19972;DHT22;10147;16.402;102.848;2024-01-15T01:29:53;24.10;99.90
19972;DHT22;10147;16.402;102.848;2024-01-15T01:32:24;24.30;99.90
19972;DHT22;10147;16.402;102.848;2024-01-15T01:34:54;24.30;99.90
19972;DHT22;10147;16.402;102.848;2024-01-15T01:37:25;24.30;99.90
19972;DHT22;10147;16.402;102.848;2024-01-15T01:39:55;24.50;99.90
19972;DHT22;10147;16.402;102.848;2024-01-15T01:42:26;24.70;99.90
19972;DHT22;10147;16.402;102.848;2024-01-15T01:44:58;24.60;99.90
19972;DHT22;10147;16.402;102.848;2024-01-15T01:47:28;24.70;99.90
19972;DHT22;10147;16.402;102.848;2024-01-15T01:49:59;24.70;99.90
19972;DHT22;10147;16.402;102.848;2024-01-15T01:52:30;24.90;99.90
19972;DHT22;10147;16.402;102.848;2024-01-15T01:55:01;25.00;99.90
19972;DHT22;10147;16.402;102.848;2024-01-15T01:57:34;24.90;99.90
19972;DHT22;10147;16.402;102.848;2024-01-15T02:00:05;25.00;99.90
19972;DHT22;10147;16.402;102.848;2024-01-15T02:02:39;25.00;99.90
19972;DHT22;10147;16.402;102.848;2024-01-15T02:05:09;25.20;99.90
19972;DHT22;10147;16.402;102.848;2024-01-15T02:07:40;25.50;99.90
19972;DHT22;10147;16.402;102.848;2024-01-15T02:10:10;25.50;99.90
19972;DHT22;10147;16.402;102.848;2024-01-15T02:12:42;25.50;99.90
19972;DHT22;10147;16.402;102.848;2024-01-15T02:15:12;25.70;99.90
19972;DHT22;10147;16.402;102.848;2024-01-15T02:18:03;25.90;99.90
19972;DHT22;10147;16.402;102.848;2024-01-15T02:20:34;26.00;99.90
19972;DHT22;10147;16.402;102.848;2024-01-15T02:23:19;26.10;99.90
19972;DHT22;10147;16.402;102.848;2024-01-15T02:25:49;26.20;99.90
19972;DHT22;10147;16.402;102.848;2024-01-15T02:28:19;26.10;99.90
19972;DHT22;10147;16.402;102.848;2024-01-15T02:30:49;26.20;99.90
19972;DHT22;10147;16.402;102.848;2024-01-15T02:33:20;26.40;99.90
19972;DHT22;10147;16.402;102.848;2024-01-15T02:35:50;26.50;99.90
19972;DHT22;10147;16.402;102.848;2024-01-15T02:38:20;26.70;99.90
19972;DHT22;10147;16.402;102.848;2024-01-15T02:40:50;26.30;99.90
19972;DHT22;10147;16.402;102.848;2024-01-15T02:43:20;26.60;99.90
19972;DHT22;10147;16.402;102.848;2024-01-15T02:45:51;26.90;99.90
19972;DHT22;10147;16.402;102.848;2024-01-15T02:48:22;27.00;99.90
19972;DHT22;10147;16.402;102.848;2024-01-15T02:50:52;27.10;99.90
19972;DHT22;10147;16.402;102.848;2024-01-15T02:53:22;27.20;99.90
19972;DHT22;10147;16.402;102.848;2024-01-15T02:55:52;27.20;99.90
19972;DHT22;10147;16.402;102.848;2024-01-15T02:58:23;27.30;99.90
19972;DHT22;10147;16.402;102.848;2024-01-15T03:00:53;27.40;99.90
19972;DHT22;10147;16.402;102.848;2024-01-15T03:03:23;27.40;99.90
19972;DHT22;10147;16.402;102.848;2024-01-15T03:05:54;27.40;99.90
19972;DHT22;10147;16.402;102.848;2024-01-15T03:08:24;27.50;99.90
19972;DHT22;10147;16.402;102.848;2024-01-15T03:10:54;27.60;99.90
19972;DHT22;10147;16.402;102.848;2024-01-15T03:13:24;27.50;99.90
19972;DHT22;10147;16.402;102.848;2024-01-15T03:15:54;27.50;99.90
19972;DHT22;10147;16.402;102.848;2024-01-15T03:18:24;27.80;99.90
19972;DHT22;10147;16.402;102.848;2024-01-15T03:20:55;27.90;99.90
19972;DHT22;10147;16.402;102.848;2024-01-15T03:23:25;27.90;99.90
19972;DHT22;10147;16.402;102.848;2024-01-15T03:25:55;28.00;99.90
19972;DHT22;10147;16.402;102.848;2024-01-15T03:28:25;28.00;99.90
19972;DHT22;10147;16.402;102.848;2024-01-15T03:30:56;28.30;99.90
19972;DHT22;10147;16.402;102.848;2024-01-15T03:33:26;28.20;99.90
19972;DHT22;10147;16.402;102.848;2024-01-15T03:35:57;28.40;99.90
19972;DHT22;10147;16.402;102.848;2024-01-15T03:38:30;28.50;99.90
19972;DHT22;10147;16.402;102.848;2024-01-15T03:41:00;28.50;99.90
19972;DHT22;10147;16.402;102.848;2024-01-15T03:43:30;28.50;99.90
19972;DHT22;10147;16.402;102.848;2024-01-15T03:46:01;28.60;99.90
19972;DHT22;10147;16.402;102.848;2024-01-15T03:48:34;28.70;99.90
19972;DHT22;10147;16.402;102.848;2024-01-15T03:51:04;28.70;99.90
19972;DHT22;10147;16.402;102.848;2024-01-15T03:53:34;28.50;99.90
19972;DHT22;10147;16.402;102.848;2024-01-15T03:56:04;29.00;99.90
19972;DHT22;10147;16.402;102.848;2024-01-15T03:58:34;29.00;99.90
19972;DHT22;10147;16.402;102.848;2024-01-15T04:01:08;29.10;99.90
19972;DHT22;10147;16.402;102.848;2024-01-15T04:03:39;29.10;99.90
19972;DHT22;10147;16.402;102.848;2024-01-15T04:06:09;29.00;99.90
19972;DHT22;10147;16.402;102.848;2024-01-15T04:08:39;29.10;99.90
19972;DHT22;10147;16.402;102.848;2024-01-15T04:11:09;29.30;99.90
19972;DHT22;10147;16.402;102.848;2024-01-15T04:13:39;29.50;99.90
19972;DHT22;10147;16.402;102.848;2024-01-15T04:16:09;29.40;99.90
19972;DHT22;10147;16.402;102.848;2024-01-15T04:18:39;29.50;99.90
19972;DHT22;10147;16.402;102.848;2024-01-15T04:21:09;29.50;99.90
19972;DHT22;10147;16.402;102.848;2024-01-15T04:23:40;29.60;99.90
19972;DHT22;10147;16.402;102.848;2024-01-15T04:26:10;29.60;99.90
19972;DHT22;10147;16.402;102.848;2024-01-15T04:28:41;29.70;99.90
19972;DHT22;10147;16.402;102.848;2024-01-15T04:31:22;29.80;99.90
19972;DHT22;10147;16.402;102.848;2024-01-15T04:33:53;29.90;99.90
19972;DHT22;10147;16.402;102.848;2024-01-15T04:36:23;29.80;99.90
19972;DHT22;10147;16.402;102.848;2024-01-15T04:38:54;30.00;99.90
19972;DHT22;10147;16.402;102.848;2024-01-15T04:41:24;30.00;99.90
19972;DHT22;10147;16.402;102.848;2024-01-15T04:43:54;30.20;99.90
19972;DHT22;10147;16.402;102.848;2024-01-15T04:46:24;30.30;99.90
19972;DHT22;10147;16.402;102.848;2024-01-15T04:48:55;30.50;99.90
19972;DHT22;10147;16.402;102.848;2024-01-15T04:51:25;30.40;99.90
19972;DHT22;10147;16.402;102.848;2024-01-15T04:53:55;30.60;99.90
19972;DHT22;10147;16.402;102.848;2024-01-15T04:56:25;30.60;99.90
19972;DHT22;10147;16.402;102.848;2024-01-15T04:58:58;30.60;99.90
19972;DHT22;10147;16.402;102.848;2024-01-15T05:01:31;30.70;99.90
19972;DHT22;10147;16.402;102.848;2024-01-15T05:04:02;30.70;99.90
19972;DHT22;10147;16.402;102.848;2024-01-15T05:06:35;30.90;99.90
19972;DHT22;10147;16.402;102.848;2024-01-15T05:09:05;30.90;99.90
19972;DHT22;10147;16.402;102.848;2024-01-15T05:11:37;31.00;99.90
19972;DHT22;10147;16.402;102.848;2024-01-15T05:14:07;30.70;99.90
19972;DHT22;10147;16.402;102.848;2024-01-15T05:16:47;30.90;99.90
19972;DHT22;10147;16.402;102.848;2024-01-15T05:19:18;31.10;99.90
19972;DHT22;10147;16.402;102.848;2024-01-15T05:21:49;31.10;99.90
19972;DHT22;10147;16.402;102.848;2024-01-15T05:24:19;31.20;99.90
19972;DHT22;10147;16.402;102.848;2024-01-15T05:26:49;31.10;99.90
19972;DHT22;10147;16.402;102.848;2024-01-15T05:29:19;31.20;99.90
19972;DHT22;10147;16.402;102.848;2024-01-15T05:31:49;31.20;99.90
19972;DHT22;10147;16.402;102.848;2024-01-15T05:34:19;31.40;99.90
19972;DHT22;10147;16.402;102.848;2024-01-15T05:36:49;31.20;99.90
19972;DHT22;10147;16.402;102.848;2024-01-15T05:39:19;31.50;99.90
19972;DHT22;10147;16.402;102.848;2024-01-15T05:41:51;31.60;99.90
19972;DHT22;10147;16.402;102.848;2024-01-15T05:44:21;31.80;99.90
19972;DHT22;10147;16.402;102.848;2024-01-15T05:46:52;31.90;99.90
19972;DHT22;10147;16.402;102.848;2024-01-15T05:49:24;31.80;99.90
19972;DHT22;10147;16.402;102.848;2024-01-15T05:51:54;31.40;99.90
19972;DHT22;10147;16.402;102.848;2024-01-15T05:54:24;31.40;99.90
19972;DHT22;10147;16.402;102.848;2024-01-15T05:56:54;31.50;99.90
19972;DHT22;10147;16.402;102.848;2024-01-15T05:59:24;31.70;99.90
19972;DHT22;10147;16.402;102.848;2024-01-15T06:01:55;31.70;99.90
19972;DHT22;10147;16.402;102.848;2024-01-15T06:04:25;31.80;99.90
19972;DHT22;10147;16.402;102.848;2024-01-15T06:06:55;31.90;99.90
19972;DHT22;10147;16.402;102.848;2024-01-15T06:09:26;32.30;99.90
19972;DHT22;10147;16.402;102.848;2024-01-15T06:11:57;32.10;99.90
19972;DHT22;10147;16.402;102.848;2024-01-15T06:14:27;32.20;99.90
19972;DHT22;10147;16.402;102.848;2024-01-15T06:16:57;32.50;99.90
19972;DHT22;10147;16.402;102.848;2024-01-15T06:19:27;32.40;99.90
19972;DHT22;10147;16.402;102.848;2024-01-15T06:21:58;32.30;99.90
19972;DHT22;10147;16.402;102.848;2024-01-15T06:24:28;32.20;99.90
19972;DHT22;10147;16.402;102.848;2024-01-15T06:26:58;32.30;99.90
19972;DHT22;10147;16.402;102.848;2024-01-15T06:29:28;32.30;99.90
19972;DHT22;10147;16.402;102.848;2024-01-15T06:31:58;32.50;99.90
19972;DHT22;10147;16.402;102.848;2024-01-15T06:34:28;32.60;99.90
19972;DHT22;10147;16.402;102.848;2024-01-15T06:36:58;32.80;99.90
19972;DHT22;10147;16.402;102.848;2024-01-15T06:39:28;32.80;99.90
19972;DHT22;10147;16.402;102.848;2024-01-15T06:41:59;32.90;99.90
19972;DHT22;10147;16.402;102.848;2024-01-15T06:44:29;33.10;99.90
19972;DHT22;10147;16.402;102.848;2024-01-15T06:47:00;32.70;99.90
19972;DHT22;10147;16.402;102.848;2024-01-15T06:49:32;33.20;99.90
19972;DHT22;10147;16.402;102.848;2024-01-15T06:52:02;33.20;99.90
19972;DHT22;10147;16.402;102.848;2024-01-15T06:54:33;33.40;99.90
19972;DHT22;10147;16.402;102.848;2024-01-15T06:57:03;33.30;99.90
19972;DHT22;10147;16.402;102.848;2024-01-15T06:59:34;33.00;99.90
19972;DHT22;10147;16.402;102.848;2024-01-15T07:02:07;32.90;99.90
19972;DHT22;10147;16.402;102.848;2024-01-15T07:04:37;33.00;99.90
19972;DHT22;10147;16.402;102.848;2024-01-15T07:07:11;33.10;99.90
19972;DHT22;10147;16.402;102.848;2024-01-15T07:09:41;33.40;99.90
19972;DHT22;10147;16.402;102.848;2024-01-15T07:12:11;33.60;99.90
19972;DHT22;10147;16.402;102.848;2024-01-15T07:14:41;33.50;99.90
19972;DHT22;10147;16.402;102.848;2024-01-15T07:17:11;33.40;99.90
19972;DHT22;10147;16.402;102.848;2024-01-15T07:19:41;33.60;99.90
19972;DHT22;10147;16.402;102.848;2024-01-15T07:22:12;33.30;99.90
19972;DHT22;10147;16.402;102.848;2024-01-15T07:24:43;33.40;99.90
19972;DHT22;10147;16.402;102.848;2024-01-15T07:27:13;33.10;99.90
19972;DHT22;10147;16.402;102.848;2024-01-15T07:29:43;32.90;99.90
19972;DHT22;10147;16.402;102.848;2024-01-15T07:32:13;33.00;99.90
19972;DHT22;10147;16.402;102.848;2024-01-15T07:34:43;33.20;99.90
19972;DHT22;10147;16.402;102.848;2024-01-15T07:37:13;33.20;99.90
19972;DHT22;10147;16.402;102.848;2024-01-15T07:39:43;33.10;99.90
19972;DHT22;10147;16.402;102.848;2024-01-15T07:42:13;33.50;99.90
19972;DHT22;10147;16.402;102.848;2024-01-15T07:44:43;33.40;99.90
19972;DHT22;10147;16.402;102.848;2024-01-15T07:47:16;33.30;99.90
19972;DHT22;10147;16.402;102.848;2024-01-15T07:49:46;33.00;99.90
19972;DHT22;10147;16.402;102.848;2024-01-15T07:52:17;32.80;99.90
19972;DHT22;10147;16.402;102.848;2024-01-15T07:54:47;32.90;99.90
19972;DHT22;10147;16.402;102.848;2024-01-15T07:57:17;33.20;99.90
19972;DHT22;10147;16.402;102.848;2024-01-15T07:59:47;33.40;99.90
19972;DHT22;10147;16.402;102.848;2024-01-15T08:02:17;33.50;99.90
19972;DHT22;10147;16.402;102.848;2024-01-15T08:04:47;33.40;99.90
19972;DHT22;10147;16.402;102.848;2024-01-15T08:07:17;33.40;99.90
19972;DHT22;10147;16.402;102.848;2024-01-15T08:09:47;33.20;99.90
19972;DHT22;10147;16.402;102.848;2024-01-15T08:12:18;32.80;99.90
19972;DHT22;10147;16.402;102.848;2024-01-15T08:14:48;33.00;99.90
19972;DHT22;10147;16.402;102.848;2024-01-15T08:17:18;33.20;99.90
19972;DHT22;10147;16.402;102.848;2024-01-15T08:19:48;33.20;99.90
19972;DHT22;10147;16.402;102.848;2024-01-15T08:22:18;33.10;99.90
19972;DHT22;10147;16.402;102.848;2024-01-15T08:24:48;33.20;99.90
19972;DHT22;10147;16.402;102.848;2024-01-15T08:27:19;33.20;99.90
19972;DHT22;10147;16.402;102.848;2024-01-15T08:29:49;33.10;99.90
19972;DHT22;10147;16.402;102.848;2024-01-15T08:32:19;33.00;99.90
19972;DHT22;10147;16.402;102.848;2024-01-15T08:34:49;33.00;99.90
19972;DHT22;10147;16.402;102.848;2024-01-15T08:37:21;33.00;99.90
19972;DHT22;10147;16.402;102.848;2024-01-15T08:39:51;32.90;99.90
19972;DHT22;10147;16.402;102.848;2024-01-15T08:42:21;32.70;99.90
19972;DHT22;10147;16.402;102.848;2024-01-15T08:44:51;32.70;99.90
19972;DHT22;10147;16.402;102.848;2024-01-15T08:47:22;32.50;99.90
19972;DHT22;10147;16.402;102.848;2024-01-15T08:49:54;32.70;99.90
19972;DHT22;10147;16.402;102.848;2024-01-15T08:52:24;32.70;99.90
19972;DHT22;10147;16.402;102.848;2024-01-15T08:54:56;32.70;99.90
19972;DHT22;10147;16.402;102.848;2024-01-15T08:57:26;32.90;99.90
19972;DHT22;10147;16.402;102.848;2024-01-15T08:59:56;32.80;99.90
19972;DHT22;10147;16.402;102.848;2024-01-15T09:02:26;32.40;99.90
19972;DHT22;10147;16.402;102.848;2024-01-15T09:04:56;32.00;99.90
19972;DHT22;10147;16.402;102.848;2024-01-15T09:07:27;32.10;99.90
19972;DHT22;10147;16.402;102.848;2024-01-15T09:09:57;32.10;99.90
19972;DHT22;10147;16.402;102.848;2024-01-15T09:12:29;31.90;99.90
19972;DHT22;10147;16.402;102.848;2024-01-15T09:14:59;32.20;99.90
19972;DHT22;10147;16.402;102.848;2024-01-15T09:17:29;32.30;99.90
19972;DHT22;10147;16.402;102.848;2024-01-15T09:19:59;32.30;99.90
19972;DHT22;10147;16.402;102.848;2024-01-15T09:22:29;32.20;99.90
19972;DHT22;10147;16.402;102.848;2024-01-15T09:24:59;32.20;99.90
19972;DHT22;10147;16.402;102.848;2024-01-15T09:27:30;32.10;99.90
19972;DHT22;10147;16.402;102.848;2024-01-15T09:30:04;32.10;99.90
19972;DHT22;10147;16.402;102.848;2024-01-15T09:32:34;32.00;99.90
19972;DHT22;10147;16.402;102.848;2024-01-15T09:35:05;31.90;99.90
19972;DHT22;10147;16.402;102.848;2024-01-15T09:37:35;31.90;99.90
19972;DHT22;10147;16.402;102.848;2024-01-15T09:40:15;31.60;99.90
19972;DHT22;10147;16.402;102.848;2024-01-15T09:42:46;31.80;99.90
19972;DHT22;10147;16.402;102.848;2024-01-15T09:45:17;31.90;99.90
19972;DHT22;10147;16.402;102.848;2024-01-15T09:47:49;31.90;99.90
19972;DHT22;10147;16.402;102.848;2024-01-15T09:50:20;31.80;99.90
19972;DHT22;10147;16.402;102.848;2024-01-15T09:52:50;31.70;99.90
19972;DHT22;10147;16.402;102.848;2024-01-15T09:55:21;31.60;99.90
19972;DHT22;10147;16.402;102.848;2024-01-15T09:57:52;31.70;99.90
19972;DHT22;10147;16.402;102.848;2024-01-15T10:00:24;31.70;99.90
19972;DHT22;10147;16.402;102.848;2024-01-15T10:02:55;31.40;99.90
19972;DHT22;10147;16.402;102.848;2024-01-15T10:05:26;31.30;99.90
19972;DHT22;10147;16.402;102.848;2024-01-15T10:07:57;31.40;99.90
19972;DHT22;10147;16.402;102.848;2024-01-15T10:10:27;31.20;99.90
19972;DHT22;10147;16.402;102.848;2024-01-15T10:12:58;31.20;99.90
19972;DHT22;10147;16.402;102.848;2024-01-15T10:15:29;31.00;99.90
19972;DHT22;10147;16.402;102.848;2024-01-15T10:17:59;31.20;99.90
19972;DHT22;10147;16.402;102.848;2024-01-15T10:20:32;31.10;99.90
19972;DHT22;10147;16.402;102.848;2024-01-15T10:23:04;31.00;99.90
19972;DHT22;10147;16.402;102.848;2024-01-15T10:25:35;30.90;99.90
19972;DHT22;10147;16.402;102.848;2024-01-15T10:28:06;30.90;99.90
19972;DHT22;10147;16.402;102.848;2024-01-15T10:30:37;30.80;99.90
19972;DHT22;10147;16.402;102.848;2024-01-15T10:33:08;30.80;99.90
19972;DHT22;10147;16.402;102.848;2024-01-15T10:35:38;30.80;99.90
19972;DHT22;10147;16.402;102.848;2024-01-15T10:38:08;30.60;99.90
19972;DHT22;10147;16.402;102.848;2024-01-15T10:40:42;30.60;99.90
19972;DHT22;10147;16.402;102.848;2024-01-15T10:43:12;30.50;99.90
19972;DHT22;10147;16.402;102.848;2024-01-15T10:45:43;30.40;99.90
19972;DHT22;10147;16.402;102.848;2024-01-15T10:48:18;30.50;99.90
19972;DHT22;10147;16.402;102.848;2024-01-15T10:50:49;30.50;99.90
19972;DHT22;10147;16.402;102.848;2024-01-15T10:53:19;30.40;99.90
19972;DHT22;10147;16.402;102.848;2024-01-15T10:55:50;30.40;99.90
19972;DHT22;10147;16.402;102.848;2024-01-15T10:58:21;30.40;99.90
19972;DHT22;10147;16.402;102.848;2024-01-15T11:00:52;30.20;99.90
19972;DHT22;10147;16.402;102.848;2024-01-15T11:03:22;30.20;99.90
19972;DHT22;10147;16.402;102.848;2024-01-15T11:05:53;30.30;99.90
19972;DHT22;10147;16.402;102.848;2024-01-15T11:08:25;30.20;99.90
19972;DHT22;10147;16.402;102.848;2024-01-15T11:10:55;30.00;99.90
19972;DHT22;10147;16.402;102.848;2024-01-15T11:13:46;30.00;99.90
19972;DHT22;10147;16.402;102.848;2024-01-15T11:16:19;30.10;99.90
19972;DHT22;10147;16.402;102.848;2024-01-15T11:19:08;30.10;99.90
19972;DHT22;10147;16.402;102.848;2024-01-15T11:21:42;30.10;99.90
19972;DHT22;10147;16.402;102.848;2024-01-15T11:24:36;29.80;99.90
19972;DHT22;10147;16.402;102.848;2024-01-15T11:27:08;29.90;99.90
19972;DHT22;10147;16.402;102.848;2024-01-15T11:29:39;29.90;99.90
19972;DHT22;10147;16.402;102.848;2024-01-15T11:32:09;29.90;99.90
19972;DHT22;10147;16.402;102.848;2024-01-15T11:34:59;29.80;99.90
19972;DHT22;10147;16.402;102.848;2024-01-15T11:37:59;29.50;99.90
19972;DHT22;10147;16.402;102.848;2024-01-15T11:40:38;29.60;99.90
19972;DHT22;10147;16.402;102.848;2024-01-15T11:43:09;29.50;99.90
19972;DHT22;10147;16.402;102.848;2024-01-15T11:45:40;29.50;99.90
19972;DHT22;10147;16.402;102.848;2024-01-15T11:48:13;29.40;99.90
19972;DHT22;10147;16.402;102.848;2024-01-15T11:50:47;29.20;99.90
19972;DHT22;10147;16.402;102.848;2024-01-15T11:53:45;29.30;99.90
19972;DHT22;10147;16.402;102.848;2024-01-15T11:56:19;29.10;99.90
19972;DHT22;10147;16.402;102.848;2024-01-15T11:58:52;29.10;99.90
19972;DHT22;10147;16.402;102.848;2024-01-15T12:01:22;28.90;99.90
19972;DHT22;10147;16.402;102.848;2024-01-15T12:03:52;28.90;99.90
19972;DHT22;10147;16.402;102.848;2024-01-15T12:06:22;28.80;99.90
19972;DHT22;10147;16.402;102.848;2024-01-15T12:09:07;28.90;99.90
19972;DHT22;10147;16.402;102.848;2024-01-15T12:11:39;28.90;99.90
19972;DHT22;10147;16.402;102.848;2024-01-15T12:14:15;28.70;99.90
19972;DHT22;10147;16.402;102.848;2024-01-15T12:16:45;28.60;99.90
19972;DHT22;10147;16.402;102.848;2024-01-15T12:19:16;28.80;99.90
19972;DHT22;10147;16.402;102.848;2024-01-15T12:21:46;28.80;99.90
19972;DHT22;10147;16.402;102.848;2024-01-15T12:24:18;28.80;99.90
19972;DHT22;10147;16.402;102.848;2024-01-15T12:26:51;28.70;99.90
19972;DHT22;10147;16.402;102.848;2024-01-15T12:29:21;28.90;99.90
19972;DHT22;10147;16.402;102.848;2024-01-15T12:31:53;28.80;99.90
19972;DHT22;10147;16.402;102.848;2024-01-15T12:34:29;28.70;99.90
19972;DHT22;10147;16.402;102.848;2024-01-15T12:37:01;28.60;99.90
19972;DHT22;10147;16.402;102.848;2024-01-15T12:39:31;28.50;99.90
19972;DHT22;10147;16.402;102.848;2024-01-15T12:42:03;28.40;99.90
19972;DHT22;10147;16.402;102.848;2024-01-15T12:44:34;28.40;99.90
19972;DHT22;10147;16.402;102.848;2024-01-15T12:47:05;28.40;99.90
19972;DHT22;10147;16.402;102.848;2024-01-15T12:49:37;28.30;99.90
19972;DHT22;10147;16.402;102.848;2024-01-15T12:52:09;28.20;99.90
19972;DHT22;10147;16.402;102.848;2024-01-15T12:54:40;28.10;99.90
19972;DHT22;10147;16.402;102.848;2024-01-15T12:57:10;28.00;99.90
19972;DHT22;10147;16.402;102.848;2024-01-15T12:59:40;28.00;99.90
19972;DHT22;10147;16.402;102.848;2024-01-15T13:02:11;27.90;99.90
19972;DHT22;10147;16.402;102.848;2024-01-15T13:04:42;28.10;99.90
19972;DHT22;10147;16.402;102.848;2024-01-15T13:07:12;28.00;99.90
19972;DHT22;10147;16.402;102.848;2024-01-15T13:09:42;28.10;99.90
19972;DHT22;10147;16.402;102.848;2024-01-15T13:12:13;28.30;99.90
19972;DHT22;10147;16.402;102.848;2024-01-15T13:14:44;28.20;99.90
19972;DHT22;10147;16.402;102.848;2024-01-15T13:17:14;28.20;99.90
19972;DHT22;10147;16.402;102.848;2024-01-15T13:19:48;28.10;99.90
19972;DHT22;10147;16.402;102.848;2024-01-15T13:22:18;28.00;99.90
19972;DHT22;10147;16.402;102.848;2024-01-15T13:24:51;28.00;99.90
19972;DHT22;10147;16.402;102.848;2024-01-15T13:27:22;28.00;99.90
19972;DHT22;10147;16.402;102.848;2024-01-15T13:29:52;28.00;99.90
19972;DHT22;10147;16.402;102.848;2024-01-15T13:32:27;27.70;99.90
19972;DHT22;10147;16.402;102.848;2024-01-15T13:34:59;27.80;99.90
19972;DHT22;10147;16.402;102.848;2024-01-15T13:37:32;27.70;99.90
19972;DHT22;10147;16.402;102.848;2024-01-15T13:40:03;27.50;99.90
19972;DHT22;10147;16.402;102.848;2024-01-15T13:42:33;27.70;99.90
19972;DHT22;10147;16.402;102.848;2024-01-15T13:45:04;27.50;99.90
19972;DHT22;10147;16.402;102.848;2024-01-15T13:47:36;27.60;99.90
19972;DHT22;10147;16.402;102.848;2024-01-15T13:50:07;27.70;99.90
19972;DHT22;10147;16.402;102.848;2024-01-15T13:52:40;27.50;99.90
19972;DHT22;10147;16.402;102.848;2024-01-15T13:55:10;27.40;99.90
19972;DHT22;10147;16.402;102.848;2024-01-15T13:57:40;27.40;99.90
19972;DHT22;10147;16.402;102.848;2024-01-15T14:00:12;27.70;99.90
19972;DHT22;10147;16.402;102.848;2024-01-15T14:02:48;27.60;99.90
19972;DHT22;10147;16.402;102.848;2024-01-15T14:05:18;27.40;99.90
19972;DHT22;10147;16.402;102.848;2024-01-15T14:07:48;27.50;99.90
19972;DHT22;10147;16.402;102.848;2024-01-15T14:10:18;27.60;99.90
19972;DHT22;10147;16.402;102.848;2024-01-15T14:12:49;27.60;99.90
19972;DHT22;10147;16.402;102.848;2024-01-15T14:15:23;27.50;99.90
19972;DHT22;10147;16.402;102.848;2024-01-15T14:17:58;27.30;99.90
19972;DHT22;10147;16.402;102.848;2024-01-15T14:20:29;27.20;99.90
19972;DHT22;10147;16.402;102.848;2024-01-15T14:23:00;27.30;99.90
19972;DHT22;10147;16.402;102.848;2024-01-15T14:25:30;27.30;99.90
19972;DHT22;10147;16.402;102.848;2024-01-15T14:28:00;27.10;99.90
19972;DHT22;10147;16.402;102.848;2024-01-15T14:30:30;27.00;99.90
19972;DHT22;10147;16.402;102.848;2024-01-15T14:33:02;27.10;99.90
19972;DHT22;10147;16.402;102.848;2024-01-15T14:35:33;26.90;99.90
19972;DHT22;10147;16.402;102.848;2024-01-15T14:38:03;26.80;99.90
19972;DHT22;10147;16.402;102.848;2024-01-15T14:40:34;26.70;99.90
19972;DHT22;10147;16.402;102.848;2024-01-15T14:43:05;26.60;99.90
19972;DHT22;10147;16.402;102.848;2024-01-15T14:45:35;26.60;99.90
19972;DHT22;10147;16.402;102.848;2024-01-15T14:48:06;26.50;99.90
19972;DHT22;10147;16.402;102.848;2024-01-15T14:50:36;26.60;99.90
19972;DHT22;10147;16.402;102.848;2024-01-15T14:53:07;26.50;99.90
19972;DHT22;10147;16.402;102.848;2024-01-15T14:55:39;26.40;99.90
19972;DHT22;10147;16.402;102.848;2024-01-15T14:58:09;26.40;99.90
19972;DHT22;10147;16.402;102.848;2024-01-15T15:00:39;26.60;99.90
19972;DHT22;10147;16.402;102.848;2024-01-15T15:03:09;26.40;99.90
19972;DHT22;10147;16.402;102.848;2024-01-15T15:05:40;26.30;99.90
19972;DHT22;10147;16.402;102.848;2024-01-15T15:08:10;26.30;99.90
19972;DHT22;10147;16.402;102.848;2024-01-15T15:10:42;26.40;99.90
19972;DHT22;10147;16.402;102.848;2024-01-15T15:13:12;26.60;99.90
19972;DHT22;10147;16.402;102.848;2024-01-15T15:15:45;26.40;99.90
19972;DHT22;10147;16.402;102.848;2024-01-15T15:18:15;26.40;99.90
19972;DHT22;10147;16.402;102.848;2024-01-15T15:20:46;26.40;99.90
19972;DHT22;10147;16.402;102.848;2024-01-15T15:23:18;26.30;99.90
19972;DHT22;10147;16.402;102.848;2024-01-15T15:25:48;26.30;99.90
19972;DHT22;10147;16.402;102.848;2024-01-15T15:28:18;26.10;99.90